KPSC/PSC METAR and TAF weather

Enter ICAO airport designator
Station Type Date Time Source
KPSC METAR 2019/06/17 14:53 UTC NOAA

KPSC 171453Z 22007KT 10SM CLR 23/11 A2995 RMK AO2 SLP139 T02330106 51017


Station Type Date Time Source
KPSC Decoded METAR 2019/06/17 14:53 UTC NOAA

TRI-CITIES AIRPORT, WA, United States (KPSC) 46-16N 119-07W 121M
Jun 17, 2019 - 10:53 AM EDT / 2019.06.17 1453 UTC
Wind: from the SW (220 degrees) at 8 MPH (7 KT):0
Visibility: 10 mile(s):0
Sky conditions: clear
Temperature: 73.9 F (23.3 C)
Dew Point: 51.1 F (10.6 C)
Relative Humidity: 44%
Pressure (altimeter): 29.95 in. Hg (1014 hPa)
Pressure tendency: 0.05 inches (1.7 hPa) higher than three hours ago
ob: KPSC 171453Z 22007KT 10SM CLR 23/11 A2995 RMK AO2 SLP139 T02330106 51017
cycle: 15

Station Type Date Time Source
KPSC TAF 2019/06/17 12:36 UTC NOAA

TAF KPSC 171134Z 1712/1812 22007KT P6SM FEW250
FM171800 22010KT P6SM FEW250

Example: see airport list